Birds Landing, California
Current Conditions -  °F | °C
As of 1:58 AM on Sunday 26 Oct 2014 (Local Time) from KSUU Reporting Station
Clear Clear  
Wind Chill: 57°   Ceiling: Unl
Heat Index: 57°   Visibility: 10mi
Dew Point: 56°   Wind: 3mph
Humidity: 98%   Direction: 270°W
Pressure: 30.12"   Gusts: NA
Location:  38.13°N, 121.87°W
Report Text: KSUU 260858Z AUTO 27003KT 10SM CLR 14/14 A3012 RMK AO2 SLP206 T01390136 50002 $
Loading
Personal Weather Stations






























Interactive Weather Map
Tropical Storm Tracking
New forecast layout! Learn more

10-Day Weather Forecast

Advertisements
Track Severe Weather on mobile